Time;durP1;ratioP1;P1;durP2;ratioP2;P2;SDS_P1;SDS_P2;PMS_P1;PMS_P2;Temp;Humidity;BMP_temperature;BMP_pressure;BME280_temperature;BME280_humidity;BME280_pressure;Samples;Min_cycle;Max_cycle;Signal;HPM_P1;HPM_P2
2021/12/12 00:00:03;;;;;;;92.60;44.30;;;2.40;98.30;;;;;;5140774;23;20209;-77
2021/12/12 00:02:19;;;;;;;86.07;42.17;;;2.40;98.30;;;;;;5150050;23;20178;-77
2021/12/12 00:04:32;;;;;;;90.38;42.38;;;2.40;98.30;;;;;;5141350;23;20695;-77
2021/12/12 00:06:38;;;;;;;97.13;44.53;;;2.40;98.30;;;;;;5141419;23;20185;-77
2021/12/12 00:08:44;;;;;;;102.03;46.22;;;2.40;98.30;;;;;;5141167;23;20190;-77
2021/12/12 00:10:53;;;;;;;92.75;39.50;;;2.40;98.30;;;;;;5141495;23;20209;-77
2021/12/12 00:13:01;;;;;;;99.88;40.45;;;2.40;98.30;;;;;;5140899;23;20189;-77
2021/12/12 00:15:09;;;;;;;98.10;41.78;;;2.40;98.30;;;;;;5141674;23;20205;-77
2021/12/12 00:17:15;;;;;;;108.82;41.95;;;2.40;98.30;;;;;;5141437;23;20245;-77
2021/12/12 00:19:18;;;;;;;106.97;41.60;;;2.40;98.30;;;;;;5141125;23;20170;-77
2021/12/12 00:21:25;;;;;;;107.15;44.08;;;2.40;98.30;;;;;;5141402;23;20174;-77
2021/12/12 00:23:28;;;;;;;101.25;43.95;;;2.40;98.30;;;;;;5141609;23;20240;-77
2021/12/12 00:25:35;;;;;;;121.80;45.65;;;2.40;98.30;;;;;;5141653;23;20183;-78
2021/12/12 00:27:38;;;;;;;109.18;44.53;;;2.50;98.30;;;;;;5141227;23;20717;-77
2021/12/12 00:29:42;;;;;;;107.40;40.85;;;2.50;98.30;;;;;;5140875;23;20210;-77
2021/12/12 00:31:48;;;;;;;184.95;50.28;;;2.40;98.30;;;;;;5141389;23;20177;-77
2021/12/12 00:33:55;;;;;;;134.27;43.70;;;2.40;98.30;;;;;;5141197;23;20182;-77
2021/12/12 00:35:58;;;;;;;151.48;49.35;;;2.40;98.30;;;;;;5141438;23;20205;-77
2021/12/12 00:38:11;;;;;;;133.70;48.55;;;2.50;98.30;;;;;;5140840;23;20178;-77
2021/12/12 00:40:21;;;;;;;153.45;46.58;;;2.40;98.30;;;;;;5140811;23;20202;-77
2021/12/12 00:42:27;;;;;;;187.43;49.05;;;2.50;98.30;;;;;;5141114;23;20212;-77
2021/12/12 00:44:31;;;;;;;163.57;50.17;;;2.50;98.30;;;;;;5141266;23;20236;-77
2021/12/12 00:46:34;;;;;;;140.40;44.63;;;2.50;98.30;;;;;;5141285;23;20624;-77
2021/12/12 00:48:39;;;;;;;170.80;47.90;;;2.50;98.30;;;;;;5140728;23;20179;-77
2021/12/12 00:50:45;;;;;;;180.88;51.13;;;2.50;98.30;;;;;;5140994;23;20206;-77
2021/12/12 00:52:53;;;;;;;129.02;45.50;;;2.40;98.30;;;;;;5141472;23;20178;-77
2021/12/12 00:54:56;;;;;;;153.85;46.85;;;2.40;98.30;;;;;;5141106;23;20191;-77
2021/12/12 00:57:00;;;;;;;146.75;43.70;;;2.40;98.30;;;;;;5141198;23;20190;-77
2021/12/12 00:59:05;;;;;;;252.52;56.60;;;2.50;98.30;;;;;;5140837;23;20822;-77
2021/12/12 01:01:12;;;;;;;177.18;48.22;;;2.50;98.30;;;;;;5140934;23;20240;-77
2021/12/12 01:03:17;;;;;;;156.90;47.17;;;2.50;98.30;;;;;;5140658;23;20236;-78
2021/12/12 01:05:22;;;;;;;313.33;64.03;;;2.50;98.30;;;;;;5141260;23;20205;-77
2021/12/12 01:07:30;;;;;;;204.68;51.03;;;2.50;98.30;;;;;;5141334;23;20182;-78
2021/12/12 01:09:40;;;;;;;290.85;56.90;;;2.40;98.30;;;;;;5140690;23;20256;-77
2021/12/12 01:11:46;;;;;;;220.75;54.67;;;2.40;98.30;;;;;;5141412;23;20202;-79
2021/12/12 01:13:50;;;;;;;223.98;53.20;;;2.50;98.30;;;;;;5142206;23;20166;-77
2021/12/12 01:15:58;;;;;;;331.02;66.10;;;2.50;98.30;;;;;;5141148;23;20183;-77
2021/12/12 01:18:05;;;;;;;200.07;52.83;;;2.50;98.30;;;;;;5140724;23;20166;-78
2021/12/12 01:20:14;;;;;;;338.45;66.32;;;2.50;98.30;;;;;;5140123;23;20265;-77
2021/12/12 01:22:24;;;;;;;257.52;54.88;;;2.50;98.30;;;;;;5141102;23;20169;-78
2021/12/12 01:24:31;;;;;;;195.43;52.40;;;2.50;98.30;;;;;;5141048;23;20170;-78
2021/12/12 01:26:36;;;;;;;279.50;63.22;;;2.50;98.30;;;;;;5140972;23;20185;-78
2021/12/12 01:28:42;;;;;;;168.13;51.25;;;2.40;98.30;;;;;;5140492;23;20829;-78
2021/12/12 01:30:47;;;;;;;186.43;50.38;;;2.50;98.30;;;;;;5140561;23;20210;-78
2021/12/12 01:32:52;;;;;;;159.85;48.22;;;2.50;98.30;;;;;;5140888;23;20624;-78
2021/12/12 01:34:57;;;;;;;190.10;50.97;;;2.50;98.30;;;;;;5141180;23;20186;-77
2021/12/12 01:37:12;;;;;;;164.65;51.03;;;2.50;98.30;;;;;;5140816;23;20244;-77
2021/12/12 01:39:18;;;;;;;130.55;49.63;;;2.50;98.30;;;;;;5140627;23;20188;-77
2021/12/12 01:41:27;;;;;;;128.40;43.30;;;2.50;98.30;;;;;;5140906;23;20233;-77
2021/12/12 01:43:38;;;;;;;228.48;53.47;;;2.60;98.30;;;;;;5140578;23;20170;-78
2021/12/12 01:45:46;;;;;;;216.60;55.58;;;2.60;98.30;;;;;;5140955;23;20632;-78
2021/12/12 01:47:51;;;;;;;198.50;52.40;;;2.60;98.30;;;;;;5140841;23;20229;-77
2021/12/12 01:49:57;;;;;;;137.82;50.15;;;2.60;98.30;;;;;;5140527;23;20198;-78
2021/12/12 01:52:03;;;;;;;189.20;50.22;;;2.60;98.30;;;;;;5140654;23;20513;-77
2021/12/12 01:54:09;;;;;;;138.00;45.75;;;2.70;98.30;;;;;;5140488;23;20182;-78
2021/12/12 01:56:17;;;;;;;161.38;46.85;;;2.60;98.30;;;;;;5140887;23;20526;-78
2021/12/12 01:58:25;;;;;;;138.30;45.22;;;2.60;98.30;;;;;;5140649;23;20166;-78
2021/12/12 02:00:31;;;;;;;164.63;49.40;;;2.60;98.30;;;;;;5140689;23;20789;-78
2021/12/12 02:02:35;;;;;;;164.18;49.60;;;2.60;98.30;;;;;;5140957;23;20167;-78
2021/12/12 02:04:42;;;;;;;153.43;46.03;;;2.70;98.30;;;;;;5140800;23;20194;-77
2021/12/12 02:06:47;;;;;;;131.75;49.50;;;2.60;98.30;;;;;;5140672;23;20490;-78
2021/12/12 02:08:53;;;;;;;149.73;49.13;;;2.70;98.30;;;;;;5140568;23;20186;-77
2021/12/12 02:10:59;;;;;;;131.55;46.30;;;2.70;98.30;;;;;;5140437;23;20735;-79
2021/12/12 02:13:05;;;;;;;122.97;44.17;;;2.70;98.30;;;;;;5140277;23;20178;-78
2021/12/12 02:15:13;;;;;;;124.47;46.78;;;2.70;98.30;;;;;;5140644;23;20186;-78
2021/12/12 02:17:24;;;;;;;119.07;45.00;;;2.70;98.30;;;;;;5140904;23;20482;-77
2021/12/12 02:19:34;;;;;;;131.27;45.05;;;2.70;98.30;;;;;;5139843;23;20210;-78
2021/12/12 02:21:55;;;;;;;116.95;43.72;;;2.70;98.30;;;;;;5140722;23;20216;-79
2021/12/12 02:36:01;;;;;;;110.28;43.28;;;2.80;98.30;;;;;;5140262;23;20224;-77
2021/12/12 02:38:08;;;;;;;107.95;42.95;;;2.80;98.30;;;;;;5140405;23;20239;-78
2021/12/12 02:40:17;;;;;;;94.07;40.95;;;2.80;98.30;;;;;;5140354;23;20674;-78
2021/12/12 02:42:22;;;;;;;100.40;40.33;;;2.80;98.30;;;;;;5140224;23;20213;-78
2021/12/12 02:44:29;;;;;;;103.78;41.47;;;2.90;98.30;;;;;;5140427;23;20248;-78
2021/12/12 02:46:36;;;;;;;108.53;43.83;;;2.90;98.30;;;;;;5140578;23;20178;-78
2021/12/12 02:48:43;;;;;;;106.03;44.45;;;2.90;98.30;;;;;;5140399;23;20546;-78
2021/12/12 02:50:51;;;;;;;107.43;44.03;;;2.90;98.30;;;;;;5140060;23;20210;-77
2021/12/12 02:52:56;;;;;;;98.80;43.85;;;2.90;98.30;;;;;;5140273;23;20652;-79
2021/12/12 02:55:00;;;;;;;103.05;43.33;;;2.90;98.30;;;;;;5140604;23;20185;-77
2021/12/12 02:57:06;;;;;;;104.82;42.10;;;2.90;98.30;;;;;;5140098;23;20179;-77
2021/12/12 02:59:11;;;;;;;92.32;39.70;;;2.80;98.30;;;;;;5148059;23;20232;-78
2021/12/12 03:01:25;;;;;;;90.65;40.08;;;2.90;98.30;;;;;;5140079;23;20225;-77
2021/12/12 03:03:30;;;;;;;87.57;40.45;;;2.90;98.30;;;;;;5140726;23;20183;-77
2021/12/12 03:05:41;;;;;;;91.78;38.85;;;2.90;98.30;;;;;;5140343;23;20163;-78
2021/12/12 03:07:45;;;;;;;87.32;37.75;;;2.90;98.30;;;;;;5140459;23;20494;-78
2021/12/12 03:09:54;;;;;;;88.68;36.90;;;2.90;98.30;;;;;;5139593;23;20205;-77
2021/12/12 03:12:00;;;;;;;82.43;38.70;;;2.90;98.30;;;;;;5140103;23;20276;-78
2021/12/12 03:14:05;;;;;;;80.60;38.90;;;2.90;98.30;;;;;;5140057;23;20627;-78
2021/12/12 03:16:08;;;;;;;83.57;38.50;;;3.00;98.30;;;;;;5139677;23;20179;-78
2021/12/12 03:18:22;;;;;;;84.10;39.33;;;3.00;98.30;;;;;;5139716;23;20221;-78
2021/12/12 03:20:27;;;;;;;84.15;38.47;;;3.00;98.30;;;;;;5139599;23;20256;-77
2021/12/12 03:22:30;;;;;;;84.53;38.15;;;3.00;98.30;;;;;;5140177;23;20163;-77
2021/12/12 03:24:33;;;;;;;81.20;37.25;;;3.00;98.30;;;;;;5139485;23;20217;-77
2021/12/12 03:26:37;;;;;;;84.57;39.63;;;3.00;98.30;;;;;;5139952;23;20198;-78
2021/12/12 03:28:43;;;;;;;85.05;38.65;;;3.00;98.30;;;;;;5139701;23;20182;-78
2021/12/12 03:30:52;;;;;;;70.22;37.47;;;3.00;98.30;;;;;;5139221;23;20726;-77
2021/12/12 03:32:59;;;;;;;78.13;37.05;;;3.10;98.30;;;;;;5152144;22;20209;-86
2021/12/12 03:35:07;;;;;;;74.55;37.72;;;3.10;98.30;;;;;;5157058;23;20233;-84
2021/12/12 03:37:12;;;;;;;78.65;38.05;;;3.10;98.30;;;;;;5157219;23;20182;-85
2021/12/12 03:39:19;;;;;;;72.78;36.70;;;3.10;98.30;;;;;;5152870;23;20251;-85
2021/12/12 03:41:24;;;;;;;74.88;36.95;;;3.20;98.30;;;;;;5156831;23;20163;-85
2021/12/12 03:43:31;;;;;;;71.13;34.83;;;3.20;98.30;;;;;;5156390;23;20169;-84
2021/12/12 03:45:37;;;;;;;78.75;37.65;;;3.20;98.30;;;;;;5155057;23;20258;-85
2021/12/12 03:47:51;;;;;;;74.57;37.35;;;3.20;98.30;;;;;;5155313;23;20170;-84
2021/12/12 03:49:59;;;;;;;81.85;39.28;;;3.20;98.30;;;;;;5153783;23;20186;-88
2021/12/12 03:52:10;;;;;;;65.85;35.40;;;3.30;98.30;;;;;;5154846;23;20202;-86
2021/12/12 03:54:13;;;;;;;69.25;36.30;;;3.30;98.30;;;;;;5162798;23;20174;-85
2021/12/12 03:56:17;;;;;;;64.43;35.70;;;3.30;98.30;;;;;;5155062;23;20233;-85
2021/12/12 03:58:20;;;;;;;71.03;37.53;;;3.30;98.30;;;;;;5155628;23;20193;-86
2021/12/12 04:00:26;;;;;;;70.00;36.00;;;3.30;98.30;;;;;;5163473;23;20174;-85
2021/12/12 04:02:45;;;;;;;71.70;37.40;;;3.30;98.30;;;;;;5163560;23;20242;-85
2021/12/12 04:04:49;;;;;;;68.82;37.28;;;3.40;98.30;;;;;;5154823;23;20190;-87
2021/12/12 04:06:54;;;;;;;65.65;34.03;;;3.40;98.30;;;;;;5162823;23;20174;-84
2021/12/12 04:08:58;;;;;;;64.55;34.17;;;3.40;98.30;;;;;;5155733;23;20672;-87
2021/12/12 04:11:02;;;;;;;65.50;35.43;;;3.40;98.30;;;;;;5154945;23;20190;-86
2021/12/12 04:13:19;;;;;;;63.53;33.10;;;3.50;98.30;;;;;;5155670;23;20427;-85
2021/12/12 04:15:23;;;;;;;57.80;33.45;;;3.50;98.30;;;;;;5165224;23;20417;-87
2021/12/12 04:17:28;;;;;;;69.07;37.13;;;3.60;98.30;;;;;;5154540;23;20210;-86
2021/12/12 04:19:33;;;;;;;58.90;35.35;;;3.60;98.30;;;;;;5163481;23;20175;-87
2021/12/12 04:24:10;;;;;;;57.80;33.87;;;3.60;98.30;;;;;;5104499;23;20429;-85
2021/12/12 04:26:20;;;;;;;61.90;34.40;;;3.60;98.30;;;;;;5155301;23;20727;-88
2021/12/12 04:28:23;;;;;;;60.43;33.43;;;3.60;98.30;;;;;;5155470;23;20436;-88
2021/12/12 04:30:26;;;;;;;60.27;32.60;;;3.60;98.30;;;;;;5154355;23;20500;-87
2021/12/12 04:32:30;;;;;;;56.77;30.93;;;3.60;98.30;;;;;;5162721;23;20472;-86
2021/12/12 04:34:39;;;;;;;54.93;30.70;;;3.60;98.30;;;;;;5153373;23;20451;-87
2021/12/12 04:36:49;;;;;;;66.27;34.53;;;3.60;98.30;;;;;;5154614;23;20427;-86
2021/12/12 04:38:59;;;;;;;54.80;31.63;;;3.60;98.30;;;;;;5155647;23;20432;-85
2021/12/12 04:41:09;;;;;;;59.67;31.50;;;3.60;98.30;;;;;;5157520;23;20409;-85
2021/12/12 04:43:18;;;;;;;66.17;33.80;;;3.60;98.30;;;;;;5158052;23;20780;-85
2021/12/12 04:45:33;;;;;;;62.97;32.77;;;3.60;98.30;;;;;;5156933;23;20432;-85
2021/12/12 04:50:19;;;;;;;68.83;37.50;;;3.70;98.30;;;;;;5158281;23;20921;-88
2021/12/12 04:52:29;;;;;;;65.80;34.83;;;3.70;98.30;;;;;;5154155;23;20453;-85
2021/12/12 04:54:48;;;;;;;65.13;35.00;;;3.70;98.30;;;;;;5156260;23;20436;-84
2021/12/12 04:56:56;;;;;;;61.53;36.00;;;3.70;98.30;;;;;;5155500;23;20430;-85
2021/12/12 04:59:06;;;;;;;62.07;37.10;;;3.70;98.30;;;;;;5155194;23;20436;-86
2021/12/12 05:01:17;;;;;;;64.93;36.53;;;3.70;98.30;;;;;;5154395;23;20413;-85
2021/12/12 05:03:27;;;;;;;71.60;35.83;;;3.70;98.30;;;;;;5153574;23;20456;-85
2021/12/12 05:05:34;;;;;;;65.90;37.40;;;3.70;98.30;;;;;;5154936;23;20732;-86
2021/12/12 05:07:43;;;;;;;74.17;37.00;;;3.70;98.30;;;;;;5157118;23;20438;-86
2021/12/12 05:09:53;;;;;;;64.07;35.03;;;3.70;98.30;;;;;;5162981;23;20517;-85
2021/12/12 05:12:04;;;;;;;70.70;38.13;;;3.70;98.30;;;;;;5165882;23;20442;-84
2021/12/12 05:14:22;;;;;;;74.03;39.10;;;3.70;98.30;;;;;;5157519;23;20429;-84
2021/12/12 05:16:27;;;;;;;70.20;35.83;;;3.70;98.30;;;;;;5156065;23;20425;-84
2021/12/12 05:18:36;;;;;;;70.87;36.07;;;3.60;98.30;;;;;;5157392;23;20418;-84
2021/12/12 05:23:33;;;;;;;76.13;36.20;;;3.50;98.30;;;;;;5157406;23;20446;-84
2021/12/12 05:25:53;;;;;;;69.60;37.30;;;3.50;98.30;;;;;;5158309;23;20453;-87
2021/12/12 05:28:03;;;;;;;75.97;37.53;;;3.60;98.30;;;;;;5157976;23;20422;-86
2021/12/12 05:30:11;;;;;;;86.00;38.77;;;3.60;98.30;;;;;;5163588;23;20429;-85
2021/12/12 05:35:00;;;;;;;71.50;38.70;;;3.50;98.30;;;;;;5152168;23;20433;-85
2021/12/12 05:37:06;;;;;;;78.70;38.80;;;3.50;98.30;;;;;;5158143;23;20500;-86
2021/12/12 05:39:10;;;;;;;83.27;39.07;;;3.50;98.30;;;;;;5157351;23;21312;-86
2021/12/12 05:41:13;;;;;;;83.53;38.97;;;3.50;98.30;;;;;;5165597;23;20414;-85
2021/12/12 05:43:29;;;;;;;78.00;41.13;;;3.60;98.30;;;;;;5156210;23;20529;-84
2021/12/12 05:45:35;;;;;;;90.17;42.07;;;3.60;98.30;;;;;;5155757;23;20413;-83
2021/12/12 05:47:39;;;;;;;87.23;40.40;;;3.60;98.30;;;;;;5156320;23;20448;-84
2021/12/12 05:49:44;;;;;;;90.77;42.07;;;3.60;98.30;;;;;;5155942;23;20439;-83
2021/12/12 05:51:46;;;;;;;93.10;41.40;;;3.60;98.30;;;;;;5165164;23;20437;-84
2021/12/12 05:53:52;;;;;;;85.40;41.83;;;3.70;98.30;;;;;;5155514;23;20515;-82
2021/12/12 05:55:56;;;;;;;96.10;42.37;;;3.60;98.30;;;;;;5164662;23;20422;-85
2021/12/12 05:58:01;;;;;;;96.57;45.60;;;3.70;98.30;;;;;;5154686;23;20429;-85
2021/12/12 06:00:09;;;;;;;91.37;44.00;;;3.70;98.30;;;;;;5155143;23;20958;-83
2021/12/12 06:02:15;;;;;;;87.57;41.40;;;3.70;98.30;;;;;;5156250;23;20454;-83
2021/12/12 06:04:19;;;;;;;101.80;45.10;;;3.70;98.30;;;;;;5164557;23;20396;-84
2021/12/12 06:06:27;;;;;;;95.35;44.67;;;3.80;98.30;;;;;;5154775;23;20448;-82
2021/12/12 06:08:30;;;;;;;100.93;45.17;;;3.80;98.30;;;;;;5162464;23;20233;-83
2021/12/12 06:10:39;;;;;;;92.60;45.63;;;3.80;98.30;;;;;;5155518;23;20425;-83
2021/12/12 06:12:44;;;;;;;97.20;45.13;;;3.80;98.30;;;;;;5155549;23;20527;-85
2021/12/12 06:17:22;;;;;;;93.53;45.83;;;3.80;98.30;;;;;;5153649;23;20424;-82
2021/12/12 06:19:25;;;;;;;93.23;43.97;;;3.90;98.30;;;;;;5162572;23;20400;-83
2021/12/12 06:21:29;;;;;;;97.37;45.30;;;3.90;98.30;;;;;;5165006;23;20474;-82
2021/12/12 06:23:33;;;;;;;104.43;46.73;;;3.90;98.30;;;;;;5164483;23;20429;-85
2021/12/12 06:25:39;;;;;;;107.07;46.70;;;3.90;98.30;;;;;;5163448;23;20508;-82
2021/12/12 06:27:42;;;;;;;89.70;44.97;;;3.90;98.30;;;;;;5155579;23;20427;-86
2021/12/12 06:29:49;;;;;;;107.83;47.90;;;3.90;98.30;;;;;;5154035;23;20427;-84
2021/12/12 06:31:54;;;;;;;89.57;44.47;;;3.90;98.30;;;;;;5155723;23;20508;-82
2021/12/12 06:34:20;;;;;;;99.57;44.30;;;3.90;98.30;;;;;;5154095;23;20456;-83
2021/12/12 06:36:24;;;;;;;108.53;47.23;;;3.90;98.30;;;;;;5164181;23;20424;-84
2021/12/12 06:38:30;;;;;;;103.70;45.17;;;4.00;98.30;;;;;;5163661;23;20429;-83
2021/12/12 06:40:35;;;;;;;98.40;44.13;;;3.90;98.30;;;;;;5156623;23;20388;-88
2021/12/12 06:42:49;;;;;;;101.17;46.50;;;4.00;98.30;;;;;;5155736;23;20472;-85
2021/12/12 06:45:04;;;;;;;102.93;46.90;;;4.00;98.30;;;;;;5156604;23;20884;-86
2021/12/12 06:47:08;;;;;;;90.73;44.23;;;4.00;98.30;;;;;;5157010;23;20432;-85
2021/12/12 06:49:21;;;;;;;99.87;44.93;;;4.00;98.30;;;;;;5157364;23;20404;-85
2021/12/12 06:51:27;;;;;;;119.63;47.13;;;4.00;98.30;;;;;;5163842;23;20475;-85
2021/12/12 06:53:34;;;;;;;97.07;44.20;;;4.00;98.30;;;;;;5155810;23;20467;-84
2021/12/12 06:55:44;;;;;;;98.37;44.37;;;4.00;98.30;;;;;;5165098;23;20380;-87
2021/12/12 06:57:50;;;;;;;96.33;43.13;;;4.00;98.30;;;;;;5156406;23;20467;-85
2021/12/12 07:00:13;;;;;;;107.00;46.07;;;4.00;98.30;;;;;;5155547;23;20392;-84
2021/12/12 07:02:20;;;;;;;99.63;43.73;;;4.00;98.30;;;;;;5130152;23;20431;-86
2021/12/12 07:04:30;;;;;;;110.07;44.87;;;4.00;98.30;;;;;;5164754;23;20405;-84
2021/12/12 07:06:43;;;;;;;96.53;43.80;;;4.00;98.30;;;;;;5157779;23;20426;-83
2021/12/12 07:08:55;;;;;;;101.33;44.90;;;4.00;98.30;;;;;;5165869;23;20444;-83
2021/12/12 07:26:33;;;;;;;69.68;35.97;;;4.10;98.30;;;;;;4957108;22;4994352;-86
2021/12/12 07:28:38;;;;;;;64.53;34.50;;;4.20;98.30;;;;;;5137747;23;20410;-85
2021/12/12 07:30:46;;;;;;;63.60;34.97;;;4.20;98.30;;;;;;5139120;23;20400;-85
2021/12/12 07:32:52;;;;;;;75.37;34.43;;;4.20;98.30;;;;;;5128305;23;20475;-87
2021/12/12 07:35:20;;;;;;;57.57;31.73;;;4.10;98.30;;;;;;5111767;23;20447;-85
2021/12/12 07:37:24;;;;;;;62.83;32.50;;;4.20;98.30;;;;;;5113953;23;20388;-86
2021/12/12 07:39:53;;;;;;;60.77;29.67;;;4.20;98.30;;;;;;5113905;23;20913;-86
2021/12/12 07:42:22;;;;;;;55.40;33.03;;;4.20;98.30;;;;;;5113617;23;20447;-88
2021/12/12 07:44:29;;;;;;;54.40;30.90;;;4.20;98.30;;;;;;5122216;23;20414;-86
2021/12/12 07:46:34;;;;;;;58.70;31.00;;;4.30;98.30;;;;;;5113429;23;20431;-85
2021/12/12 07:48:42;;;;;;;53.60;28.97;;;4.20;98.30;;;;;;5112811;23;20412;-85
2021/12/12 07:50:47;;;;;;;58.53;31.23;;;4.30;98.30;;;;;;5114262;23;20406;-86
2021/12/12 07:52:56;;;;;;;49.10;27.53;;;4.30;98.30;;;;;;5096496;23;20450;-88
2021/12/12 07:55:19;;;;;;;66.87;30.20;;;4.30;98.30;;;;;;5113716;23;20498;-86
2021/12/12 07:57:30;;;;;;;55.47;28.00;;;4.30;98.30;;;;;;5110664;23;20409;-85
2021/12/12 07:59:38;;;;;;;56.90;28.67;;;4.30;98.30;;;;;;5122066;23;20460;-84
2021/12/12 08:02:24;;;;;;;60.43;27.63;;;4.30;98.30;;;;;;5122162;23;20514;-84
2021/12/12 08:04:29;;;;;;;50.47;27.80;;;4.30;98.30;;;;;;5096342;23;20429;-83
2021/12/12 08:06:38;;;;;;;50.30;25.20;;;4.30;98.30;;;;;;5070467;23;20470;-87
2021/12/12 08:09:06;;;;;;;42.43;24.20;;;4.30;98.30;;;;;;5110428;23;20469;-86
2021/12/12 08:11:18;;;;;;;52.00;27.83;;;4.30;98.30;;;;;;5112869;23;20498;-87
2021/12/12 08:13:38;;;;;;;52.20;27.43;;;4.30;98.30;;;;;;5114303;23;20458;-84
2021/12/12 08:15:55;;;;;;;48.70;27.30;;;4.20;98.30;;;;;;5113764;23;20454;-85
2021/12/12 08:18:39;;;;;;;48.33;27.50;;;4.30;98.30;;;;;;5122143;23;20403;-82
2021/12/12 08:21:03;;;;;;;53.27;28.30;;;4.30;98.30;;;;;;5112274;23;20438;-86
2021/12/12 08:23:08;;;;;;;47.87;25.93;;;4.20;98.30;;;;;;5113577;23;20943;-85
2021/12/12 08:25:21;;;;;;;49.90;25.10;;;4.30;98.30;;;;;;5117283;23;20460;-88
2021/12/12 08:27:30;;;;;;;43.73;24.03;;;4.30;98.30;;;;;;5128258;23;20432;-86
2021/12/12 08:29:39;;;;;;;50.97;26.37;;;4.30;98.30;;;;;;5141128;23;20417;-84
2021/12/12 08:31:42;;;;;;;50.20;26.20;;;4.30;98.30;;;;;;5132958;23;20439;-84
2021/12/12 08:33:48;;;;;;;51.70;26.60;;;4.20;98.30;;;;;;5132858;23;20755;-84
2021/12/12 08:35:59;;;;;;;46.70;26.57;;;4.20;98.30;;;;;;5139560;23;20413;-85
2021/12/12 08:38:07;;;;;;;52.90;28.30;;;4.20;98.30;;;;;;5130752;23;20426;-83
2021/12/12 08:40:15;;;;;;;51.10;27.83;;;4.20;98.30;;;;;;5131967;23;20385;-86
2021/12/12 08:42:26;;;;;;;55.50;28.70;;;4.20;98.30;;;;;;5130826;23;20454;-86
2021/12/12 08:44:33;;;;;;;46.13;25.87;;;4.20;98.30;;;;;;5131127;23;20410;-85
2021/12/12 08:47:12;;;;;;;58.97;27.53;;;4.20;98.30;;;;;;5131469;23;20432;-84
2021/12/12 08:49:18;;;;;;;55.40;27.00;;;4.20;98.30;;;;;;5129141;23;20429;-83
2021/12/12 08:51:34;;;;;;;54.27;28.27;;;4.20;98.30;;;;;;5130914;23;20410;-84
2021/12/12 08:53:56;;;;;;;53.67;27.17;;;4.20;98.30;;;;;;5132007;23;20481;-84
2021/12/12 08:56:05;;;;;;;54.90;27.07;;;4.20;98.30;;;;;;5132374;23;20427;-85
2021/12/12 08:58:38;;;;;;;47.73;26.23;;;4.20;98.30;;;;;;5106142;23;20423;-86
2021/12/12 09:00:50;;;;;;;47.67;28.07;;;4.20;98.30;;;;;;5132678;23;20426;-87
2021/12/12 09:03:13;;;;;;;53.67;24.33;;;4.20;98.30;;;;;;5130735;23;20474;-85
2021/12/12 09:05:39;;;;;;;52.33;24.73;;;4.30;98.30;;;;;;5115230;23;20405;-85
2021/12/12 09:08:10;;;;;;;49.00;25.80;;;4.30;98.30;;;;;;5140982;23;20449;-86
2021/12/12 09:10:21;;;;;;;55.67;26.93;;;4.20;98.30;;;;;;5129327;23;20391;-89
2021/12/12 09:12:40;;;;;;;39.13;19.30;;;4.30;98.30;;;;;;5132820;23;20464;-85
2021/12/12 09:15:21;;;;;;;46.20;23.13;;;4.30;98.30;;;;;;5117946;23;20517;-88
2021/12/12 09:17:33;;;;;;;42.27;22.60;;;4.40;98.30;;;;;;5134774;23;20485;-86
2021/12/12 09:19:55;;;;;;;36.67;22.67;;;4.40;98.30;;;;;;5132928;23;20480;-88
2021/12/12 09:22:06;;;;;;;35.83;21.43;;;4.30;98.30;;;;;;5132829;23;20772;-88
2021/12/12 09:24:27;;;;;;;37.37;20.97;;;4.30;98.30;;;;;;5133479;23;20422;-88
2021/12/12 09:26:57;;;;;;;44.07;21.33;;;4.40;98.30;;;;;;5132674;23;20842;-89
2021/12/12 09:29:16;;;;;;;36.60;21.20;;;4.50;98.30;;;;;;5132728;23;20425;-87
2021/12/12 09:31:28;;;;;;;41.33;19.90;;;4.50;98.30;;;;;;5125958;23;20412;-85
2021/12/12 09:33:39;;;;;;;34.67;18.83;;;4.50;98.30;;;;;;5136566;23;20455;-85
2021/12/12 09:36:03;;;;;;;38.53;19.80;;;4.50;98.30;;;;;;5128886;23;20404;-88
2021/12/12 09:41:23;;;;;;;36.80;20.87;;;4.50;98.30;;;;;;5127319;23;20465;-86
2021/12/12 09:44:05;;;;;;;33.67;18.90;;;4.60;98.30;;;;;;5121685;23;20771;-86
2021/12/12 09:46:28;;;;;;;33.37;18.10;;;4.60;98.30;;;;;;5136489;23;20393;-86
2021/12/12 09:51:27;;;;;;;37.90;17.53;;;4.60;98.30;;;;;;5135527;23;20490;-86
2021/12/12 09:53:58;;;;;;;30.20;17.77;;;4.70;98.30;;;;;;5135933;23;20425;-88
2021/12/12 09:56:25;;;;;;;28.97;16.47;;;4.70;98.30;;;;;;5124649;23;20433;-90
2021/12/12 09:58:43;;;;;;;23.27;15.30;;;4.80;98.30;;;;;;5133927;23;20505;-84
2021/12/12 10:03:46;;;;;;;25.70;16.10;;;4.80;98.30;;;;;;5074697;23;20898;-87
2021/12/12 10:05:59;;;;;;;17.87;11.70;;;4.80;98.30;;;;;;5137319;23;20426;-87
2021/12/12 10:08:23;;;;;;;18.57;12.30;;;4.90;98.30;;;;;;5128611;23;20506;-86
2021/12/12 10:10:58;;;;;;;18.57;12.20;;;4.90;98.30;;;;;;5130004;23;20487;-88
2021/12/12 10:15:59;;;;;;;14.53;10.77;;;5.00;98.30;;;;;;5133454;23;20503;-83
2021/12/12 10:18:10;;;;;;;14.20;8.67;;;4.90;98.30;;;;;;5132694;23;20414;-82
2021/12/12 10:26:16;;;;;;;10.60;8.27;;;4.90;98.30;;;;;;5132310;23;20430;-83
2021/12/12 10:28:51;;;;;;;9.60;7.60;;;4.90;98.30;;;;;;5033266;23;20430;-86
2021/12/12 10:31:18;;;;;;;12.10;8.20;;;4.90;98.30;;;;;;5042623;23;20453;-84
2021/12/12 10:33:46;;;;;;;8.30;7.33;;;4.90;98.30;;;;;;5074011;23;20427;-82
2021/12/12 10:36:02;;;;;;;10.90;7.50;;;5.00;98.30;;;;;;5118646;23;20404;-84
2021/12/12 10:38:25;;;;;;;9.70;8.70;;;5.00;98.30;;;;;;5116543;23;20865;-88
2021/12/12 10:40:36;;;;;;;13.70;8.57;;;4.90;98.30;;;;;;5109492;23;20493;-82
2021/12/12 10:42:47;;;;;;;11.60;9.47;;;5.00;98.30;;;;;;5109948;23;20460;-85
2021/12/12 10:44:58;;;;;;;8.60;7.70;;;5.00;98.30;;;;;;5108695;23;20890;-85
2021/12/12 10:53:05;;;;;;;10.00;7.37;;;4.90;98.30;;;;;;5115946;23;20439;-87
2021/12/12 10:55:47;;;;;;;12.00;9.20;;;5.00;98.30;;;;;;5102994;23;20414;-86
2021/12/12 10:58:28;;;;;;;10.27;8.70;;;5.00;98.30;;;;;;5107760;23;20377;-85
2021/12/12 11:00:43;;;;;;;13.63;9.00;;;4.90;98.30;;;;;;5108980;23;20406;-89
2021/12/12 11:03:08;;;;;;;10.67;8.73;;;5.00;98.30;;;;;;5116165;23;20418;-86
2021/12/12 11:08:37;;;;;;;10.97;8.13;;;5.00;98.30;;;;;;4938451;24;20481;-83
2021/12/12 11:11:14;;;;;;;11.00;9.67;;;5.00;98.30;;;;;;4895315;24;20444;-85
2021/12/12 11:13:24;;;;;;;13.87;9.63;;;5.00;98.30;;;;;;4901746;24;20452;-84
2021/12/12 11:18:30;;;;;;;10.00;8.13;;;5.00;98.30;;;;;;4864783;24;20986;-85
2021/12/12 11:24:00;;;;;;;11.27;9.10;;;5.00;98.30;;;;;;5056900;23;21127;-87
2021/12/12 11:26:07;;;;;;;12.63;9.37;;;5.10;98.30;;;;;;4970922;24;20428;-89
2021/12/12 11:28:19;;;;;;;14.63;9.70;;;5.00;98.30;;;;;;5033123;23;20448;-86
2021/12/12 11:30:45;;;;;;;10.53;9.43;;;5.10;98.30;;;;;;5082804;23;20451;-82
2021/12/12 11:33:30;;;;;;;11.50;9.07;;;5.10;98.30;;;;;;5081292;23;20482;-86
2021/12/12 11:35:39;;;;;;;11.83;9.50;;;5.10;98.30;;;;;;5078213;23;20477;-89
2021/12/12 11:38:09;;;;;;;13.63;10.00;;;5.10;98.30;;;;;;5078329;23;20428;-87
2021/12/12 11:40:42;;;;;;;13.13;10.53;;;5.10;98.30;;;;;;5071522;23;20833;-87
2021/12/12 11:42:48;;;;;;;13.27;11.87;;;5.10;98.30;;;;;;5109603;23;21217;-84
2021/12/12 11:45:48;;;;;;;11.83;9.80;;;5.10;98.30;;;;;;5122055;23;21049;-88
2021/12/12 11:48:29;;;;;;;16.13;10.20;;;5.10;98.30;;;;;;5116260;23;20426;-87
2021/12/12 11:50:48;;;;;;;13.50;9.70;;;5.10;98.30;;;;;;5131136;23;20414;-87
2021/12/12 11:52:58;;;;;;;12.33;9.83;;;5.20;98.30;;;;;;5132170;23;20528;-84
2021/12/12 11:55:30;;;;;;;14.10;9.97;;;5.20;98.30;;;;;;5131881;23;20446;-86
2021/12/12 11:57:56;;;;;;;11.27;9.23;;;5.20;98.30;;;;;;5054523;23;20429;-87
2021/12/12 12:00:19;;;;;;;13.30;10.77;;;5.20;98.30;;;;;;5116243;23;20421;-85
2021/12/12 12:02:35;;;;;;;14.03;11.50;;;5.20;98.30;;;;;;5124554;23;20421;-84
2021/12/12 12:11:06;;;;;;;12.90;9.97;;;5.30;98.30;;;;;;5108386;23;20422;-85
2021/12/12 12:19:08;;;;;;;14.37;11.73;;;5.30;98.30;;;;;;5088349;23;20408;-86
2021/12/12 12:21:49;;;;;;;15.37;12.93;;;5.30;98.30;;;;;;5107659;23;20437;-87
2021/12/12 12:24:39;;;;;;;14.43;11.37;;;5.30;98.30;;;;;;5073962;23;20459;-85
2021/12/12 12:27:15;;;;;;;16.37;12.27;;;5.30;98.30;;;;;;5097808;23;20745;-86
2021/12/12 12:30:25;;;;;;;16.00;12.83;;;5.40;98.30;;;;;;5107199;23;20433;-87
2021/12/12 12:33:25;;;;;;;;;;;;;;;;;;;;;
2021/12/12 12:36:21;;;;;;;17.73;13.10;;;5.40;98.30;;;;;;5054723;23;20493;-88
2021/12/12 12:42:22;;;;;;;16.57;12.47;;;5.40;98.30;;;;;;5056012;23;20605;-86
2021/12/12 12:45:08;;;;;;;18.83;12.30;;;5.50;98.30;;;;;;5108713;23;20400;-86
2021/12/12 12:48:11;;;;;;;15.23;13.07;;;5.50;98.30;;;;;;5107967;23;20794;-86